sensor_id;sensor_type;location;lat;lon;timestamp;P1;durP1;ratioP1;P2;durP2;ratioP2
79052;SDS011;68451;49.510;6.026;2023-05-07T00:01:38;6.68;;;4.80;;
79052;SDS011;68451;49.510;6.026;2023-05-07T00:04:04;6.57;;;5.22;;
79052;SDS011;68451;49.510;6.026;2023-05-07T00:06:30;6.75;;;5.05;;
79052;SDS011;68451;49.510;6.026;2023-05-07T00:08:57;8.77;;;5.53;;
79052;SDS011;68451;49.510;6.026;2023-05-07T00:11:22;6.20;;;3.80;;
79052;SDS011;68451;49.510;6.026;2023-05-07T00:13:48;6.90;;;4.25;;
79052;SDS011;68451;49.510;6.026;2023-05-07T00:16:14;5.85;;;4.47;;
79052;SDS011;68451;49.510;6.026;2023-05-07T00:18:39;5.40;;;3.70;;
79052;SDS011;68451;49.510;6.026;2023-05-07T00:21:05;8.20;;;4.70;;
79052;SDS011;68451;49.510;6.026;2023-05-07T00:23:30;5.47;;;4.53;;
79052;SDS011;68451;49.510;6.026;2023-05-07T00:25:56;6.40;;;4.78;;
79052;SDS011;68451;49.510;6.026;2023-05-07T00:28:21;3.90;;;3.45;;
79052;SDS011;68451;49.510;6.026;2023-05-07T00:30:47;5.47;;;4.00;;
79052;SDS011;68451;49.510;6.026;2023-05-07T00:33:12;6.90;;;5.60;;
79052;SDS011;68451;49.510;6.026;2023-05-07T00:35:38;7.28;;;5.18;;
79052;SDS011;68451;49.510;6.026;2023-05-07T00:38:03;9.83;;;5.87;;
79052;SDS011;68451;49.510;6.026;2023-05-07T00:40:29;9.30;;;5.82;;
79052;SDS011;68451;49.510;6.026;2023-05-07T00:42:54;8.57;;;6.00;;
79052;SDS011;68451;49.510;6.026;2023-05-07T00:45:23;7.57;;;5.68;;
79052;SDS011;68451;49.510;6.026;2023-05-07T00:47:53;6.17;;;5.57;;
79052;SDS011;68451;49.510;6.026;2023-05-07T00:50:23;5.30;;;4.63;;
79052;SDS011;68451;49.510;6.026;2023-05-07T00:52:48;5.65;;;4.70;;
79052;SDS011;68451;49.510;6.026;2023-05-07T00:55:14;6.22;;;4.85;;
79052;SDS011;68451;49.510;6.026;2023-05-07T00:57:40;6.30;;;4.60;;
79052;SDS011;68451;49.510;6.026;2023-05-07T01:00:07;7.07;;;4.40;;
79052;SDS011;68451;49.510;6.026;2023-05-07T01:02:34;7.57;;;5.10;;
79052;SDS011;68451;49.510;6.026;2023-05-07T01:05:01;5.47;;;4.50;;
79052;SDS011;68451;49.510;6.026;2023-05-07T01:07:28;6.50;;;4.78;;
79052;SDS011;68451;49.510;6.026;2023-05-07T01:09:54;4.43;;;4.03;;
79052;SDS011;68451;49.510;6.026;2023-05-07T01:12:21;7.37;;;3.97;;
79052;SDS011;68451;49.510;6.026;2023-05-07T01:14:47;7.32;;;4.40;;
79052;SDS011;68451;49.510;6.026;2023-05-07T01:17:15;6.47;;;5.40;;
79052;SDS011;68451;49.510;6.026;2023-05-07T01:19:41;6.53;;;5.80;;
79052;SDS011;68451;49.510;6.026;2023-05-07T01:22:07;7.37;;;5.77;;
79052;SDS011;68451;49.510;6.026;2023-05-07T01:24:36;7.50;;;5.30;;
79052;SDS011;68451;49.510;6.026;2023-05-07T01:27:02;7.45;;;5.18;;
79052;SDS011;68451;49.510;6.026;2023-05-07T01:29:28;8.40;;;6.07;;
79052;SDS011;68451;49.510;6.026;2023-05-07T01:31:54;6.97;;;5.13;;
79052;SDS011;68451;49.510;6.026;2023-05-07T01:34:23;5.77;;;5.17;;
79052;SDS011;68451;49.510;6.026;2023-05-07T01:36:51;13.37;;;5.60;;
79052;SDS011;68451;49.510;6.026;2023-05-07T01:39:18;6.63;;;5.33;;
79052;SDS011;68451;49.510;6.026;2023-05-07T01:41:44;6.20;;;4.93;;
79052;SDS011;68451;49.510;6.026;2023-05-07T01:44:10;7.37;;;5.30;;
79052;SDS011;68451;49.510;6.026;2023-05-07T01:46:38;7.03;;;5.33;;
79052;SDS011;68451;49.510;6.026;2023-05-07T01:49:04;7.83;;;5.43;;
79052;SDS011;68451;49.510;6.026;2023-05-07T01:51:29;5.70;;;5.10;;
79052;SDS011;68451;49.510;6.026;2023-05-07T01:53:56;5.80;;;5.03;;
79052;SDS011;68451;49.510;6.026;2023-05-07T01:56:23;5.73;;;5.23;;
79052;SDS011;68451;49.510;6.026;2023-05-07T01:58:49;5.60;;;5.07;;
79052;SDS011;68451;49.510;6.026;2023-05-07T02:01:16;6.30;;;5.33;;
79052;SDS011;68451;49.510;6.026;2023-05-07T02:03:41;7.93;;;5.73;;
79052;SDS011;68451;49.510;6.026;2023-05-07T02:06:07;7.33;;;4.43;;
79052;SDS011;68451;49.510;6.026;2023-05-07T02:08:32;6.53;;;5.40;;
79052;SDS011;68451;49.510;6.026;2023-05-07T02:10:58;5.43;;;4.67;;
79052;SDS011;68451;49.510;6.026;2023-05-07T02:13:25;6.10;;;5.43;;
79052;SDS011;68451;49.510;6.026;2023-05-07T02:15:52;5.67;;;5.13;;
79052;SDS011;68451;49.510;6.026;2023-05-07T02:18:18;6.40;;;5.80;;
79052;SDS011;68451;49.510;6.026;2023-05-07T02:20:44;6.03;;;5.33;;
79052;SDS011;68451;49.510;6.026;2023-05-07T02:23:09;7.57;;;4.90;;
79052;SDS011;68451;49.510;6.026;2023-05-07T02:25:34;7.27;;;5.60;;
79052;SDS011;68451;49.510;6.026;2023-05-07T02:28:00;6.10;;;5.50;;
79052;SDS011;68451;49.510;6.026;2023-05-07T02:30:25;7.87;;;5.53;;
79052;SDS011;68451;49.510;6.026;2023-05-07T02:32:51;6.23;;;5.63;;
79052;SDS011;68451;49.510;6.026;2023-05-07T02:35:16;6.83;;;6.10;;
79052;SDS011;68451;49.510;6.026;2023-05-07T02:37:42;7.03;;;5.37;;
79052;SDS011;68451;49.510;6.026;2023-05-07T02:40:08;6.37;;;5.63;;
79052;SDS011;68451;49.510;6.026;2023-05-07T02:42:34;10.40;;;6.57;;
79052;SDS011;68451;49.510;6.026;2023-05-07T02:44:59;8.27;;;6.33;;
79052;SDS011;68451;49.510;6.026;2023-05-07T02:47:25;9.67;;;5.57;;
79052;SDS011;68451;49.510;6.026;2023-05-07T02:49:53;8.77;;;5.93;;
79052;SDS011;68451;49.510;6.026;2023-05-07T02:52:19;7.07;;;4.80;;
79052;SDS011;68451;49.510;6.026;2023-05-07T02:54:44;6.53;;;5.73;;
79052;SDS011;68451;49.510;6.026;2023-05-07T02:57:10;6.40;;;5.10;;
79052;SDS011;68451;49.510;6.026;2023-05-07T02:59:35;6.83;;;5.03;;
79052;SDS011;68451;49.510;6.026;2023-05-07T03:02:01;6.30;;;4.87;;
79052;SDS011;68451;49.510;6.026;2023-05-07T03:04:27;8.23;;;5.07;;
79052;SDS011;68451;49.510;6.026;2023-05-07T03:06:52;7.03;;;5.80;;
79052;SDS011;68451;49.510;6.026;2023-05-07T03:09:17;7.37;;;5.30;;
79052;SDS011;68451;49.510;6.026;2023-05-07T03:11:43;6.90;;;6.20;;
79052;SDS011;68451;49.510;6.026;2023-05-07T03:14:08;8.87;;;4.40;;
79052;SDS011;68451;49.510;6.026;2023-05-07T03:16:34;5.93;;;4.03;;
79052;SDS011;68451;49.510;6.026;2023-05-07T03:18:59;7.13;;;5.17;;
79052;SDS011;68451;49.510;6.026;2023-05-07T03:21:25;5.83;;;4.77;;
79052;SDS011;68451;49.510;6.026;2023-05-07T03:23:51;6.03;;;5.07;;
79052;SDS011;68451;49.510;6.026;2023-05-07T03:26:17;13.13;;;5.53;;
79052;SDS011;68451;49.510;6.026;2023-05-07T03:28:42;5.57;;;4.63;;
79052;SDS011;68451;49.510;6.026;2023-05-07T03:31:08;6.30;;;4.90;;
79052;SDS011;68451;49.510;6.026;2023-05-07T03:33:33;7.20;;;4.77;;
79052;SDS011;68451;49.510;6.026;2023-05-07T03:36:00;5.47;;;4.87;;
79052;SDS011;68451;49.510;6.026;2023-05-07T03:38:26;7.60;;;4.93;;
79052;SDS011;68451;49.510;6.026;2023-05-07T03:40:51;6.30;;;4.97;;
79052;SDS011;68451;49.510;6.026;2023-05-07T03:43:17;5.93;;;4.63;;
79052;SDS011;68451;49.510;6.026;2023-05-07T03:45:42;6.10;;;4.97;;
79052;SDS011;68451;49.510;6.026;2023-05-07T03:48:08;7.43;;;4.80;;
79052;SDS011;68451;49.510;6.026;2023-05-07T03:50:33;6.30;;;4.87;;
79052;SDS011;68451;49.510;6.026;2023-05-07T03:52:59;6.27;;;5.00;;
79052;SDS011;68451;49.510;6.026;2023-05-07T03:55:24;5.73;;;4.93;;
79052;SDS011;68451;49.510;6.026;2023-05-07T03:57:50;6.50;;;4.67;;
79052;SDS011;68451;49.510;6.026;2023-05-07T04:00:16;7.33;;;4.77;;
79052;SDS011;68451;49.510;6.026;2023-05-07T04:02:41;6.93;;;4.27;;
79052;SDS011;68451;49.510;6.026;2023-05-07T04:05:07;5.73;;;4.50;;
79052;SDS011;68451;49.510;6.026;2023-05-07T04:07:33;5.90;;;4.80;;
79052;SDS011;68451;49.510;6.026;2023-05-07T04:09:58;5.43;;;4.47;;
79052;SDS011;68451;49.510;6.026;2023-05-07T04:12:24;5.20;;;3.77;;
79052;SDS011;68451;49.510;6.026;2023-05-07T04:14:49;5.67;;;5.00;;
79052;SDS011;68451;49.510;6.026;2023-05-07T04:17:15;6.30;;;4.43;;
79052;SDS011;68451;49.510;6.026;2023-05-07T04:19:40;5.07;;;4.20;;
79052;SDS011;68451;49.510;6.026;2023-05-07T04:22:10;7.30;;;3.87;;
79052;SDS011;68451;49.510;6.026;2023-05-07T04:24:36;4.47;;;4.07;;
79052;SDS011;68451;49.510;6.026;2023-05-07T04:27:02;5.30;;;4.10;;
79052;SDS011;68451;49.510;6.026;2023-05-07T04:29:27;5.07;;;4.57;;
79052;SDS011;68451;49.510;6.026;2023-05-07T04:31:53;4.60;;;4.20;;
79052;SDS011;68451;49.510;6.026;2023-05-07T04:34:21;6.87;;;5.17;;
79052;SDS011;68451;49.510;6.026;2023-05-07T04:36:46;6.67;;;5.17;;
79052;SDS011;68451;49.510;6.026;2023-05-07T04:39:13;5.33;;;4.83;;
79052;SDS011;68451;49.510;6.026;2023-05-07T04:41:38;7.37;;;5.57;;
79052;SDS011;68451;49.510;6.026;2023-05-07T04:44:04;5.43;;;5.00;;
79052;SDS011;68451;49.510;6.026;2023-05-07T04:46:30;5.57;;;4.73;;
79052;SDS011;68451;49.510;6.026;2023-05-07T04:48:56;5.07;;;4.60;;
79052;SDS011;68451;49.510;6.026;2023-05-07T04:51:21;7.13;;;4.17;;
79052;SDS011;68451;49.510;6.026;2023-05-07T04:53:47;5.67;;;4.30;;
79052;SDS011;68451;49.510;6.026;2023-05-07T04:56:28;5.70;;;5.10;;
79052;SDS011;68451;49.510;6.026;2023-05-07T04:58:54;5.57;;;5.00;;
79052;SDS011;68451;49.510;6.026;2023-05-07T05:03:55;5.60;;;5.07;;
79052;SDS011;68451;49.510;6.026;2023-05-07T05:06:21;5.77;;;4.73;;
79052;SDS011;68451;49.510;6.026;2023-05-07T05:08:46;4.80;;;4.30;;
79052;SDS011;68451;49.510;6.026;2023-05-07T05:11:11;5.17;;;4.67;;
79052;SDS011;68451;49.510;6.026;2023-05-07T05:13:37;4.83;;;4.00;;
79052;SDS011;68451;49.510;6.026;2023-05-07T05:16:02;5.65;;;5.07;;
79052;SDS011;68451;49.510;6.026;2023-05-07T05:18:28;6.17;;;4.50;;
79052;SDS011;68451;49.510;6.026;2023-05-07T05:20:53;5.83;;;4.47;;
79052;SDS011;68451;49.510;6.026;2023-05-07T05:23:19;6.50;;;4.73;;
79052;SDS011;68451;49.510;6.026;2023-05-07T05:25:45;5.33;;;4.83;;
79052;SDS011;68451;49.510;6.026;2023-05-07T05:28:10;5.17;;;4.67;;
79052;SDS011;68451;49.510;6.026;2023-05-07T05:30:36;6.17;;;4.17;;
79052;SDS011;68451;49.510;6.026;2023-05-07T05:33:01;6.13;;;4.60;;
79052;SDS011;68451;49.510;6.026;2023-05-07T05:35:27;6.03;;;3.75;;
79052;SDS011;68451;49.510;6.026;2023-05-07T05:37:52;5.75;;;4.60;;
79052;SDS011;68451;49.510;6.026;2023-05-07T05:40:18;5.63;;;4.53;;
79052;SDS011;68451;49.510;6.026;2023-05-07T05:42:44;7.05;;;5.40;;
79052;SDS011;68451;49.510;6.026;2023-05-07T05:45:09;5.47;;;4.97;;
79052;SDS011;68451;49.510;6.026;2023-05-07T05:47:35;6.45;;;4.97;;
79052;SDS011;68451;49.510;6.026;2023-05-07T05:50:00;5.40;;;4.82;;
79052;SDS011;68451;49.510;6.026;2023-05-07T05:52:26;6.75;;;5.03;;
79052;SDS011;68451;49.510;6.026;2023-05-07T05:54:51;6.85;;;5.10;;
79052;SDS011;68451;49.510;6.026;2023-05-07T05:57:17;4.60;;;3.97;;
79052;SDS011;68451;49.510;6.026;2023-05-07T05:59:43;5.05;;;4.05;;
79052;SDS011;68451;49.510;6.026;2023-05-07T06:02:09;5.93;;;4.25;;
79052;SDS011;68451;49.510;6.026;2023-05-07T06:04:34;7.53;;;4.97;;
79052;SDS011;68451;49.510;6.026;2023-05-07T06:07:00;5.45;;;4.30;;
79052;SDS011;68451;49.510;6.026;2023-05-07T06:09:25;4.65;;;4.20;;
79052;SDS011;68451;49.510;6.026;2023-05-07T06:11:50;5.80;;;4.80;;
79052;SDS011;68451;49.510;6.026;2023-05-07T06:14:16;5.13;;;4.63;;
79052;SDS011;68451;49.510;6.026;2023-05-07T06:16:41;4.72;;;4.30;;
79052;SDS011;68451;49.510;6.026;2023-05-07T06:19:07;7.22;;;4.68;;
79052;SDS011;68451;49.510;6.026;2023-05-07T06:21:32;4.85;;;4.45;;
79052;SDS011;68451;49.510;6.026;2023-05-07T06:23:58;6.07;;;5.30;;
79052;SDS011;68451;49.510;6.026;2023-05-07T06:26:23;7.38;;;5.70;;
79052;SDS011;68451;49.510;6.026;2023-05-07T06:28:49;5.78;;;5.18;;
79052;SDS011;68451;49.510;6.026;2023-05-07T06:34:05;6.43;;;5.80;;
79052;SDS011;68451;49.510;6.026;2023-05-07T06:36:30;5.05;;;4.55;;
79052;SDS011;68451;49.510;6.026;2023-05-07T06:38:56;6.35;;;5.20;;
79052;SDS011;68451;49.510;6.026;2023-05-07T06:41:21;6.10;;;4.65;;
79052;SDS011;68451;49.510;6.026;2023-05-07T06:43:47;5.72;;;4.85;;
79052;SDS011;68451;49.510;6.026;2023-05-07T06:46:12;6.43;;;5.10;;
79052;SDS011;68451;49.510;6.026;2023-05-07T06:48:38;6.15;;;4.35;;
79052;SDS011;68451;49.510;6.026;2023-05-07T06:51:04;5.70;;;4.85;;
79052;SDS011;68451;49.510;6.026;2023-05-07T06:53:29;5.30;;;4.53;;
79052;SDS011;68451;49.510;6.026;2023-05-07T06:55:55;5.20;;;4.70;;
79052;SDS011;68451;49.510;6.026;2023-05-07T06:58:21;5.95;;;4.47;;
79052;SDS011;68451;49.510;6.026;2023-05-07T07:00:47;7.38;;;5.13;;
79052;SDS011;68451;49.510;6.026;2023-05-07T07:03:12;5.13;;;4.60;;
79052;SDS011;68451;49.510;6.026;2023-05-07T07:05:38;5.75;;;5.10;;
79052;SDS011;68451;49.510;6.026;2023-05-07T07:08:05;8.32;;;4.97;;
79052;SDS011;68451;49.510;6.026;2023-05-07T07:10:30;5.93;;;4.55;;
79052;SDS011;68451;49.510;6.026;2023-05-07T07:12:56;6.05;;;5.38;;
79052;SDS011;68451;49.510;6.026;2023-05-07T07:15:21;7.20;;;4.25;;
79052;SDS011;68451;49.510;6.026;2023-05-07T07:17:47;4.85;;;4.20;;
79052;SDS011;68451;49.510;6.026;2023-05-07T07:20:13;4.43;;;3.40;;
79052;SDS011;68451;49.510;6.026;2023-05-07T07:22:39;5.38;;;4.13;;
79052;SDS011;68451;49.510;6.026;2023-05-07T07:25:05;4.93;;;4.43;;
79052;SDS011;68451;49.510;6.026;2023-05-07T07:27:30;4.47;;;4.07;;
79052;SDS011;68451;49.510;6.026;2023-05-07T07:29:56;5.63;;;4.10;;
79052;SDS011;68451;49.510;6.026;2023-05-07T07:32:21;4.70;;;3.97;;
79052;SDS011;68451;49.510;6.026;2023-05-07T07:34:47;4.45;;;3.40;;
79052;SDS011;68451;49.510;6.026;2023-05-07T07:37:12;4.22;;;3.75;;
79052;SDS011;68451;49.510;6.026;2023-05-07T07:39:38;4.38;;;3.78;;
79052;SDS011;68451;49.510;6.026;2023-05-07T07:42:03;3.88;;;3.17;;
79052;SDS011;68451;49.510;6.026;2023-05-07T07:44:29;5.10;;;3.63;;
79052;SDS011;68451;49.510;6.026;2023-05-07T07:46:54;4.55;;;3.95;;
79052;SDS011;68451;49.510;6.026;2023-05-07T07:49:20;5.47;;;3.38;;
79052;SDS011;68451;49.510;6.026;2023-05-07T07:51:46;3.67;;;3.35;;
79052;SDS011;68451;49.510;6.026;2023-05-07T07:54:11;5.65;;;4.00;;
79052;SDS011;68451;49.510;6.026;2023-05-07T07:56:37;4.90;;;3.80;;
79052;SDS011;68451;49.510;6.026;2023-05-07T07:59:03;4.28;;;3.67;;
79052;SDS011;68451;49.510;6.026;2023-05-07T08:01:30;4.78;;;4.18;;
79052;SDS011;68451;49.510;6.026;2023-05-07T08:03:59;4.20;;;3.80;;
79052;SDS011;68451;49.510;6.026;2023-05-07T08:06:28;4.78;;;3.60;;
79052;SDS011;68451;49.510;6.026;2023-05-07T08:08:53;6.00;;;4.53;;
79052;SDS011;68451;49.510;6.026;2023-05-07T08:11:20;5.20;;;4.53;;
79052;SDS011;68451;49.510;6.026;2023-05-07T08:13:47;4.47;;;3.75;;
79052;SDS011;68451;49.510;6.026;2023-05-07T08:16:13;5.40;;;3.47;;
79052;SDS011;68451;49.510;6.026;2023-05-07T08:18:39;11.85;;;4.25;;
79052;SDS011;68451;49.510;6.026;2023-05-07T08:21:05;3.38;;;3.08;;
79052;SDS011;68451;49.510;6.026;2023-05-07T08:23:31;4.32;;;3.63;;
79052;SDS011;68451;49.510;6.026;2023-05-07T08:25:59;4.45;;;3.85;;
79052;SDS011;68451;49.510;6.026;2023-05-07T08:28:25;4.38;;;3.00;;
79052;SDS011;68451;49.510;6.026;2023-05-07T08:30:51;4.32;;;3.33;;
79052;SDS011;68451;49.510;6.026;2023-05-07T08:33:17;4.47;;;3.60;;
79052;SDS011;68451;49.510;6.026;2023-05-07T08:35:43;6.82;;;3.90;;
79052;SDS011;68451;49.510;6.026;2023-05-07T08:38:10;4.88;;;4.10;;
79052;SDS011;68451;49.510;6.026;2023-05-07T08:40:36;4.53;;;3.22;;
79052;SDS011;68451;49.510;6.026;2023-05-07T08:43:04;4.13;;;3.25;;
79052;SDS011;68451;49.510;6.026;2023-05-07T08:45:31;5.80;;;3.80;;
79052;SDS011;68451;49.510;6.026;2023-05-07T08:47:58;5.22;;;3.58;;
79052;SDS011;68451;49.510;6.026;2023-05-07T08:50:26;3.90;;;3.40;;
79052;SDS011;68451;49.510;6.026;2023-05-07T08:52:54;4.00;;;2.72;;
79052;SDS011;68451;49.510;6.026;2023-05-07T08:55:23;6.47;;;3.60;;
79052;SDS011;68451;49.510;6.026;2023-05-07T08:57:50;3.58;;;3.10;;
79052;SDS011;68451;49.510;6.026;2023-05-07T09:00:18;3.20;;;2.90;;
79052;SDS011;68451;49.510;6.026;2023-05-07T09:02:43;4.25;;;2.80;;
79052;SDS011;68451;49.510;6.026;2023-05-07T09:05:09;3.80;;;2.70;;
79052;SDS011;68451;49.510;6.026;2023-05-07T09:07:35;4.90;;;2.90;;
79052;SDS011;68451;49.510;6.026;2023-05-07T09:10:01;3.72;;;2.90;;
79052;SDS011;68451;49.510;6.026;2023-05-07T09:12:29;5.03;;;3.53;;
79052;SDS011;68451;49.510;6.026;2023-05-07T09:14:54;4.38;;;2.47;;
79052;SDS011;68451;49.510;6.026;2023-05-07T09:17:21;3.65;;;2.55;;
79052;SDS011;68451;49.510;6.026;2023-05-07T09:19:47;4.75;;;2.83;;
79052;SDS011;68451;49.510;6.026;2023-05-07T09:22:13;4.95;;;2.92;;
79052;SDS011;68451;49.510;6.026;2023-05-07T09:24:38;3.47;;;3.13;;
79052;SDS011;68451;49.510;6.026;2023-05-07T09:27:04;2.97;;;2.67;;
79052;SDS011;68451;49.510;6.026;2023-05-07T09:29:31;3.60;;;2.80;;
79052;SDS011;68451;49.510;6.026;2023-05-07T09:32:00;3.63;;;2.15;;
79052;SDS011;68451;49.510;6.026;2023-05-07T09:34:28;5.53;;;3.80;;
79052;SDS011;68451;49.510;6.026;2023-05-07T09:36:55;4.93;;;3.00;;
79052;SDS011;68451;49.510;6.026;2023-05-07T09:39:21;5.75;;;2.67;;
79052;SDS011;68451;49.510;6.026;2023-05-07T09:41:48;2.72;;;2.38;;
79052;SDS011;68451;49.510;6.026;2023-05-07T09:44:14;3.28;;;2.70;;
79052;SDS011;68451;49.510;6.026;2023-05-07T09:46:42;3.45;;;2.88;;
79052;SDS011;68451;49.510;6.026;2023-05-07T09:49:08;5.43;;;2.72;;
79052;SDS011;68451;49.510;6.026;2023-05-07T09:51:45;3.08;;;2.80;;
79052;SDS011;68451;49.510;6.026;2023-05-07T09:54:14;3.67;;;3.38;;
79052;SDS011;68451;49.510;6.026;2023-05-07T09:56:40;4.13;;;2.90;;
79052;SDS011;68451;49.510;6.026;2023-05-07T09:59:10;5.53;;;3.58;;
79052;SDS011;68451;49.510;6.026;2023-05-07T10:01:38;4.82;;;3.35;;
79052;SDS011;68451;49.510;6.026;2023-05-07T10:04:05;4.45;;;2.55;;
79052;SDS011;68451;49.510;6.026;2023-05-07T10:06:34;3.45;;;3.15;;
79052;SDS011;68451;49.510;6.026;2023-05-07T10:09:03;3.20;;;2.90;;
79052;SDS011;68451;49.510;6.026;2023-05-07T10:11:33;4.05;;;3.65;;
79052;SDS011;68451;49.510;6.026;2023-05-07T10:14:00;4.00;;;3.40;;
79052;SDS011;68451;49.510;6.026;2023-05-07T10:16:33;3.92;;;3.20;;
79052;SDS011;68451;49.510;6.026;2023-05-07T10:19:04;6.10;;;3.53;;
79052;SDS011;68451;49.510;6.026;2023-05-07T10:21:30;4.40;;;3.00;;
79052;SDS011;68451;49.510;6.026;2023-05-07T10:24:05;4.68;;;4.18;;
79052;SDS011;68451;49.510;6.026;2023-05-07T10:26:39;3.95;;;3.53;;
79052;SDS011;68451;49.510;6.026;2023-05-07T10:29:10;9.45;;;6.40;;
79052;SDS011;68451;49.510;6.026;2023-05-07T10:31:53;4.20;;;3.28;;
79052;SDS011;68451;49.510;6.026;2023-05-07T10:34:32;4.28;;;3.05;;
79052;SDS011;68451;49.510;6.026;2023-05-07T10:37:03;6.18;;;4.32;;
79052;SDS011;68451;49.510;6.026;2023-05-07T10:39:29;4.30;;;3.10;;
79052;SDS011;68451;49.510;6.026;2023-05-07T10:41:55;4.20;;;3.53;;
79052;SDS011;68451;49.510;6.026;2023-05-07T10:44:24;4.25;;;3.72;;
79052;SDS011;68451;49.510;6.026;2023-05-07T10:55:50;4.88;;;3.40;;
79052;SDS011;68451;49.510;6.026;2023-05-07T10:58:24;4.45;;;3.55;;
79052;SDS011;68451;49.510;6.026;2023-05-07T11:00:58;6.68;;;4.18;;
79052;SDS011;68451;49.510;6.026;2023-05-07T11:03:26;6.05;;;4.03;;
79052;SDS011;68451;49.510;6.026;2023-05-07T11:08:52;4.65;;;4.13;;
79052;SDS011;68451;49.510;6.026;2023-05-07T11:14:42;6.80;;;4.63;;
79052;SDS011;68451;49.510;6.026;2023-05-07T11:17:08;4.85;;;3.88;;
79052;SDS011;68451;49.510;6.026;2023-05-07T11:24:48;3.92;;;3.53;;
79052;SDS011;68451;49.510;6.026;2023-05-07T11:27:14;6.65;;;4.03;;
79052;SDS011;68451;49.510;6.026;2023-05-07T11:29:50;4.25;;;3.38;;
79052;SDS011;68451;49.510;6.026;2023-05-07T11:34:51;3.92;;;3.53;;
79052;SDS011;68451;49.510;6.026;2023-05-07T11:37:18;5.88;;;3.88;;
79052;SDS011;68451;49.510;6.026;2023-05-07T11:39:45;5.47;;;4.18;;
79052;SDS011;68451;49.510;6.026;2023-05-07T11:44:53;4.25;;;3.15;;
79052;SDS011;68451;49.510;6.026;2023-05-07T11:47:26;3.92;;;3.53;;
79052;SDS011;68451;49.510;6.026;2023-05-07T11:50:06;8.23;;;4.20;;
79052;SDS011;68451;49.510;6.026;2023-05-07T11:52:33;3.90;;;3.47;;
79052;SDS011;68451;49.510;6.026;2023-05-07T11:55:02;3.58;;;3.28;;
79052;SDS011;68451;49.510;6.026;2023-05-07T11:57:29;5.10;;;3.75;;
79052;SDS011;68451;49.510;6.026;2023-05-07T11:59:59;4.93;;;3.58;;
79052;SDS011;68451;49.510;6.026;2023-05-07T12:02:27;4.78;;;3.65;;
79052;SDS011;68451;49.510;6.026;2023-05-07T12:04:54;5.53;;;3.65;;
79052;SDS011;68451;49.510;6.026;2023-05-07T12:07:21;5.72;;;3.70;;
79052;SDS011;68451;49.510;6.026;2023-05-07T12:09:50;5.85;;;3.55;;
79052;SDS011;68451;49.510;6.026;2023-05-07T12:12:18;8.98;;;4.22;;
79052;SDS011;68451;49.510;6.026;2023-05-07T12:14:44;6.35;;;3.80;;
79052;SDS011;68451;49.510;6.026;2023-05-07T12:17:13;4.15;;;3.42;;
79052;SDS011;68451;49.510;6.026;2023-05-07T12:19:43;5.75;;;4.28;;
79052;SDS011;68451;49.510;6.026;2023-05-07T12:22:11;4.90;;;3.30;;
79052;SDS011;68451;49.510;6.026;2023-05-07T12:24:47;4.30;;;3.40;;
79052;SDS011;68451;49.510;6.026;2023-05-07T12:27:14;6.07;;;3.28;;
79052;SDS011;68451;49.510;6.026;2023-05-07T12:29:43;8.63;;;3.55;;
79052;SDS011;68451;49.510;6.026;2023-05-07T12:32:14;4.53;;;2.90;;
79052;SDS011;68451;49.510;6.026;2023-05-07T12:34:41;7.15;;;4.47;;
79052;SDS011;68451;49.510;6.026;2023-05-07T12:37:06;4.10;;;3.10;;
79052;SDS011;68451;49.510;6.026;2023-05-07T12:39:32;3.63;;;2.67;;
79052;SDS011;68451;49.510;6.026;2023-05-07T12:41:58;3.67;;;3.20;;
79052;SDS011;68451;49.510;6.026;2023-05-07T12:44:25;4.78;;;2.90;;
79052;SDS011;68451;49.510;6.026;2023-05-07T12:46:54;4.75;;;2.90;;
79052;SDS011;68451;49.510;6.026;2023-05-07T12:49:19;3.67;;;2.90;;
79052;SDS011;68451;49.510;6.026;2023-05-07T12:51:47;3.80;;;2.75;;
79052;SDS011;68451;49.510;6.026;2023-05-07T12:54:13;4.35;;;3.20;;
79052;SDS011;68451;49.510;6.026;2023-05-07T12:56:39;5.15;;;3.20;;
79052;SDS011;68451;49.510;6.026;2023-05-07T12:59:05;3.70;;;3.20;;
79052;SDS011;68451;49.510;6.026;2023-05-07T13:01:30;3.60;;;2.63;;
79052;SDS011;68451;49.510;6.026;2023-05-07T13:04:00;4.13;;;3.10;;
79052;SDS011;68451;49.510;6.026;2023-05-07T13:06:26;4.65;;;3.20;;
79052;SDS011;68451;49.510;6.026;2023-05-07T13:08:51;4.97;;;3.00;;
79052;SDS011;68451;49.510;6.026;2023-05-07T13:11:17;4.18;;;3.25;;
79052;SDS011;68451;49.510;6.026;2023-05-07T13:13:42;5.10;;;3.38;;
79052;SDS011;68451;49.510;6.026;2023-05-07T13:16:08;5.90;;;3.03;;
79052;SDS011;68451;49.510;6.026;2023-05-07T13:18:35;5.22;;;3.75;;
79052;SDS011;68451;49.510;6.026;2023-05-07T13:21:02;4.80;;;3.28;;
79052;SDS011;68451;49.510;6.026;2023-05-07T13:23:28;5.32;;;3.75;;
79052;SDS011;68451;49.510;6.026;2023-05-07T13:25:54;3.30;;;2.70;;
79052;SDS011;68451;49.510;6.026;2023-05-07T13:28:20;4.10;;;3.50;;
79052;SDS011;68451;49.510;6.026;2023-05-07T13:30:47;4.20;;;3.10;;
79052;SDS011;68451;49.510;6.026;2023-05-07T13:33:13;3.08;;;2.78;;
79052;SDS011;68451;49.510;6.026;2023-05-07T13:35:40;3.88;;;3.13;;
79052;SDS011;68451;49.510;6.026;2023-05-07T13:38:06;3.78;;;2.95;;
79052;SDS011;68451;49.510;6.026;2023-05-07T13:40:31;4.78;;;3.45;;
79052;SDS011;68451;49.510;6.026;2023-05-07T13:42:57;4.43;;;2.88;;
79052;SDS011;68451;49.510;6.026;2023-05-07T13:45:24;4.22;;;3.42;;
79052;SDS011;68451;49.510;6.026;2023-05-07T13:47:51;3.80;;;3.10;;
79052;SDS011;68451;49.510;6.026;2023-05-07T13:50:17;3.85;;;2.95;;
79052;SDS011;68451;49.510;6.026;2023-05-07T13:52:43;7.03;;;3.75;;
79052;SDS011;68451;49.510;6.026;2023-05-07T13:55:15;3.80;;;3.47;;
79052;SDS011;68451;49.510;6.026;2023-05-07T13:57:42;6.10;;;2.72;;
79052;SDS011;68451;49.510;6.026;2023-05-07T14:00:08;5.72;;;3.65;;
79052;SDS011;68451;49.510;6.026;2023-05-07T14:02:34;3.95;;;3.55;;
79052;SDS011;68451;49.510;6.026;2023-05-07T14:04:59;4.78;;;3.40;;
79052;SDS011;68451;49.510;6.026;2023-05-07T14:07:25;3.78;;;3.10;;
79052;SDS011;68451;49.510;6.026;2023-05-07T14:09:50;3.10;;;2.80;;
79052;SDS011;68451;49.510;6.026;2023-05-07T14:12:16;3.22;;;2.72;;
79052;SDS011;68451;49.510;6.026;2023-05-07T14:14:41;5.18;;;3.97;;
79052;SDS011;68451;49.510;6.026;2023-05-07T14:17:07;3.90;;;3.33;;
79052;SDS011;68451;49.510;6.026;2023-05-07T14:19:33;8.25;;;3.42;;
79052;SDS011;68451;49.510;6.026;2023-05-07T14:21:59;4.38;;;3.72;;
79052;SDS011;68451;49.510;6.026;2023-05-07T14:24:24;4.47;;;3.20;;
79052;SDS011;68451;49.510;6.026;2023-05-07T14:26:49;6.35;;;3.75;;
79052;SDS011;68451;49.510;6.026;2023-05-07T14:29:15;4.57;;;3.28;;
79052;SDS011;68451;49.510;6.026;2023-05-07T14:31:44;5.97;;;3.72;;
79052;SDS011;68451;49.510;6.026;2023-05-07T14:34:10;5.75;;;5.05;;
79052;SDS011;68451;49.510;6.026;2023-05-07T14:36:35;4.00;;;3.60;;
79052;SDS011;68451;49.510;6.026;2023-05-07T14:39:01;5.85;;;3.75;;
79052;SDS011;68451;49.510;6.026;2023-05-07T14:41:26;4.32;;;3.80;;
79052;SDS011;68451;49.510;6.026;2023-05-07T14:43:52;5.38;;;3.97;;
79052;SDS011;68451;49.510;6.026;2023-05-07T14:46:17;4.80;;;3.50;;
79052;SDS011;68451;49.510;6.026;2023-05-07T14:48:44;4.78;;;3.97;;
79052;SDS011;68451;49.510;6.026;2023-05-07T14:51:11;4.50;;;3.40;;
79052;SDS011;68451;49.510;6.026;2023-05-07T14:53:37;3.47;;;3.17;;
79052;SDS011;68451;49.510;6.026;2023-05-07T14:56:02;4.75;;;3.13;;
79052;SDS011;68451;49.510;6.026;2023-05-07T14:58:28;6.13;;;3.47;;
79052;SDS011;68451;49.510;6.026;2023-05-07T15:00:53;4.85;;;3.65;;
79052;SDS011;68451;49.510;6.026;2023-05-07T15:03:19;3.97;;;3.22;;
79052;SDS011;68451;49.510;6.026;2023-05-07T15:05:44;3.63;;;3.25;;
79052;SDS011;68451;49.510;6.026;2023-05-07T15:08:10;4.68;;;3.50;;
79052;SDS011;68451;49.510;6.026;2023-05-07T15:10:36;4.45;;;3.65;;
79052;SDS011;68451;49.510;6.026;2023-05-07T15:13:06;4.45;;;3.72;;
79052;SDS011;68451;49.510;6.026;2023-05-07T15:15:35;4.80;;;3.85;;